Time;durP1;ratioP1;P1;durP2;ratioP2;P2;SDS_P1;SDS_P2;PMS_P1;PMS_P2;Temp;Humidity;BMP_temperature;BMP_pressure;BME280_temperature;BME280_humidity;BME280_pressure;Samples;Min_cycle;Max_cycle;Signal;HPM_P1;HPM_P2
2023/09/03 00:02:13;;;;;;;5.70;4.70;;;;;;;;;;4977560;28;20300;-88
2023/09/03 00:04:38;;;;;;;5.70;5.20;;;;;;;;;;4977343;28;21460;-88
2023/09/03 00:07:04;;;;;;;6.23;5.17;;;;;;;;;;4975424;28;20452;-83
2023/09/03 00:09:30;;;;;;;7.27;4.90;;;;;;;;;;4981043;28;20464;-87
2023/09/03 00:11:56;;;;;;;6.47;4.40;;;;;;;;;;4959955;28;20297;-86
2023/09/03 00:14:22;;;;;;;6.73;4.60;;;;;;;;;;4976814;28;20423;-87
2023/09/03 00:16:48;;;;;;;6.50;4.80;;;;;;;;;;4976748;28;20175;-83
2023/09/03 00:19:14;;;;;;;5.30;4.80;;;;;;;;;;4975816;28;20508;-83
2023/09/03 00:21:40;;;;;;;6.80;4.63;;;;;;;;;;4976011;28;20274;-82
2023/09/03 00:24:06;;;;;;;5.87;4.97;;;;;;;;;;4976633;28;20180;-82
2023/09/03 00:26:32;;;;;;;7.07;4.80;;;;;;;;;;4976547;28;20786;-83
2023/09/03 00:28:58;;;;;;;8.07;5.40;;;;;;;;;;4976574;28;20408;-84
2023/09/03 00:31:25;;;;;;;6.03;5.20;;;;;;;;;;4975527;28;20443;-84
2023/09/03 00:33:51;;;;;;;5.63;4.87;;;;;;;;;;4976532;28;20415;-83
2023/09/03 00:36:17;;;;;;;5.70;5.20;;;;;;;;;;4975305;28;20457;-85
2023/09/03 00:38:43;;;;;;;5.47;4.97;;;;;;;;;;4976151;28;20777;-83
2023/09/03 00:41:09;;;;;;;5.90;4.60;;;;;;;;;;4976154;28;20426;-84
2023/09/03 00:43:35;;;;;;;6.50;4.97;;;;;;;;;;4976311;28;20517;-83
2023/09/03 00:46:03;;;;;;;9.00;5.73;;;;;;;;;;4976219;28;20502;-83
2023/09/03 00:48:29;;;;;;;7.20;5.90;;;;;;;;;;4974872;28;20973;-83
2023/09/03 00:50:56;;;;;;;6.50;5.80;;;;;;;;;;4975761;28;20423;-83
2023/09/03 00:53:23;;;;;;;6.13;5.53;;;;;;;;;;4976073;28;20472;-83
2023/09/03 00:55:49;;;;;;;7.43;6.27;;;;;;;;;;4974825;28;20491;-84
2023/09/03 00:58:15;;;;;;;10.13;6.17;;;;;;;;;;4975875;28;20425;-83
2023/09/03 01:00:41;;;;;;;6.43;5.53;;;;;;;;;;4975898;28;20905;-82
2023/09/03 01:03:07;;;;;;;6.67;5.00;;;;;;;;;;4975691;28;20498;-83
2023/09/03 01:05:33;;;;;;;7.73;5.23;;;;;;;;;;4975324;28;20423;-83
2023/09/03 01:08:00;;;;;;;6.23;5.60;;;;;;;;;;4975813;28;20789;-83
2023/09/03 01:10:29;;;;;;;6.77;5.70;;;;;;;;;;4975786;28;20173;-82
2023/09/03 01:12:54;;;;;;;8.27;5.10;;;;;;;;;;4958418;28;20426;-82
2023/09/03 01:15:28;;;;;;;6.80;5.70;;;;;;;;;;4958255;28;20781;-82
2023/09/03 01:18:14;;;;;;;5.87;5.37;;;;;;;;;;4975700;28;20526;-82
2023/09/03 01:20:44;;;;;;;6.70;4.60;;;;;;;;;;4957923;28;20415;-82
2023/09/03 01:23:21;;;;;;;7.00;5.90;;;;;;;;;;4975389;28;20540;-83
2023/09/03 01:25:52;;;;;;;6.83;4.57;;;;;;;;;;4975480;28;20408;-82
2023/09/03 01:28:23;;;;;;;7.43;5.30;;;;;;;;;;4975137;28;20417;-81
2023/09/03 01:30:50;;;;;;;5.63;4.90;;;;;;;;;;4974384;28;20400;-83
2023/09/03 01:33:17;;;;;;;6.53;5.83;;;;;;;;;;4975205;28;20426;-82
2023/09/03 01:35:43;;;;;;;5.87;5.37;;;;;;;;;;4974657;28;20470;-82
2023/09/03 01:38:09;;;;;;;6.77;5.60;;;;;;;;;;4975295;28;20518;-84
2023/09/03 01:40:35;;;;;;;7.23;5.90;;;;;;;;;;4974049;28;20519;-83
2023/09/03 01:43:01;;;;;;;8.67;5.30;;;;;;;;;;4974871;28;20578;-83
2023/09/03 01:45:33;;;;;;;12.30;9.10;;;;;;;;;;4975029;28;20834;-83
2023/09/03 01:48:12;;;;;;;5.93;5.33;;;;;;;;;;4975018;28;20425;-83
2023/09/03 01:50:43;;;;;;;7.07;6.37;;;;;;;;;;4974811;28;20403;-86
2023/09/03 01:53:20;;;;;;;11.30;6.07;;;;;;;;;;4974924;28;20415;-84
2023/09/03 01:55:52;;;;;;;6.60;5.63;;;;;;;;;;4973791;28;20419;-84
2023/09/03 01:58:19;;;;;;;6.50;5.77;;;;;;;;;;4974982;28;20458;-83
2023/09/03 02:00:45;;;;;;;8.73;6.40;;;;;;;;;;4974740;28;20408;-83
2023/09/03 02:03:11;;;;;;;7.97;6.10;;;;;;;;;;4974372;28;20562;-84
2023/09/03 02:05:38;;;;;;;6.53;5.60;;;;;;;;;;4974410;28;20417;-84
2023/09/03 02:08:04;;;;;;;10.23;5.83;;;;;;;;;;4974881;28;20831;-83
2023/09/03 02:10:29;;;;;;;6.50;5.60;;;;;;;;;;4974365;28;20777;-87
2023/09/03 02:12:55;;;;;;;6.70;5.73;;;;;;;;;;4972927;28;20428;-84
2023/09/03 02:15:21;;;;;;;7.43;5.33;;;;;;;;;;4957071;28;20187;-83
2023/09/03 02:17:47;;;;;;;7.53;5.50;;;;;;;;;;4971421;28;20189;-83
2023/09/03 02:20:13;;;;;;;8.67;5.57;;;;;;;;;;4966242;28;20936;-83
2023/09/03 02:22:39;;;;;;;11.90;5.57;;;;;;;;;;4964220;28;20223;-83
2023/09/03 02:25:05;;;;;;;10.63;6.80;;;;;;;;;;4953871;28;20427;-83
2023/09/03 02:27:31;;;;;;;8.00;6.13;;;;;;;;;;4954997;29;20790;-82
2023/09/03 02:29:57;;;;;;;7.70;6.33;;;;;;;;;;4955045;28;20412;-84
2023/09/03 02:32:23;;;;;;;7.60;6.40;;;;;;;;;;4955016;28;20425;-83
2023/09/03 02:34:49;;;;;;;8.40;6.73;;;;;;;;;;4954687;28;20413;-82
2023/09/03 02:37:15;;;;;;;10.80;6.70;;;;;;;;;;4954659;29;20732;-84
2023/09/03 02:39:41;;;;;;;7.37;5.83;;;;;;;;;;4955042;28;20765;-83
2023/09/03 02:42:07;;;;;;;7.23;6.20;;;;;;;;;;4954566;28;20468;-84
2023/09/03 02:44:33;;;;;;;7.27;6.40;;;;;;;;;;4953515;28;20420;-83
2023/09/03 02:46:58;;;;;;;6.47;5.87;;;;;;;;;;4953556;28;20425;-83
2023/09/03 02:49:24;;;;;;;8.47;6.43;;;;;;;;;;4954571;28;20419;-84
2023/09/03 02:51:50;;;;;;;8.53;6.20;;;;;;;;;;4954800;28;20173;-83
2023/09/03 02:54:18;;;;;;;8.03;6.30;;;;;;;;;;4953615;28;20415;-84
2023/09/03 02:56:44;;;;;;;7.97;6.90;;;;;;;;;;4954730;28;21107;-83
2023/09/03 02:59:10;;;;;;;6.70;5.53;;;;;;;;;;4973702;28;20411;-83
2023/09/03 03:01:36;;;;;;;11.43;6.80;;;;;;;;;;4973749;28;20463;-83
2023/09/03 03:04:02;;;;;;;8.07;7.23;;;;;;;;;;4973594;28;20905;-84
2023/09/03 03:06:28;;;;;;;9.03;6.07;;;;;;;;;;4973972;28;20176;-83
2023/09/03 03:08:53;;;;;;;8.50;6.87;;;;;;;;;;4973859;28;20419;-82
2023/09/03 03:11:19;;;;;;;10.07;6.97;;;;;;;;;;4972527;28;20483;-83
2023/09/03 03:13:46;;;;;;;8.13;6.30;;;;;;;;;;4973910;28;20482;-85
2023/09/03 03:16:13;;;;;;;9.00;7.60;;;;;;;;;;4974081;28;20684;-84
2023/09/03 03:18:40;;;;;;;7.60;6.80;;;;;;;;;;4972811;28;20483;-87
2023/09/03 03:21:06;;;;;;;7.93;6.40;;;;;;;;;;4972822;28;20412;-88
2023/09/03 03:23:32;;;;;;;8.23;6.07;;;;;;;;;;4974020;28;21048;-87
2023/09/03 03:25:58;;;;;;;11.77;7.10;;;;;;;;;;4973386;28;20515;-86
2023/09/03 03:28:24;;;;;;;9.13;6.63;;;;;;;;;;4973684;28;20507;-86
2023/09/03 03:30:50;;;;;;;7.87;7.07;;;;;;;;;;4973154;28;20617;-88
2023/09/03 03:33:16;;;;;;;8.20;7.43;;;;;;;;;;4956956;28;20482;-87
2023/09/03 03:35:42;;;;;;;8.70;6.20;;;;;;;;;;4973460;28;20320;-85
2023/09/03 03:38:07;;;;;;;8.30;7.00;;;;;;;;;;4974099;28;20730;-87
2023/09/03 03:40:33;;;;;;;7.20;6.07;;;;;;;;;;4973911;28;20746;-84
2023/09/03 03:42:59;;;;;;;8.23;7.10;;;;;;;;;;4973912;28;20475;-86
2023/09/03 03:45:25;;;;;;;6.47;5.43;;;;;;;;;;4973871;28;20222;-86
2023/09/03 03:47:51;;;;;;;6.10;5.47;;;;;;;;;;4972789;28;20250;-86
2023/09/03 03:50:17;;;;;;;7.40;6.70;;;;;;;;;;4972536;28;20409;-86
2023/09/03 03:52:43;;;;;;;8.00;6.27;;;;;;;;;;4972659;28;20180;-87
2023/09/03 03:55:11;;;;;;;11.23;6.63;;;;;;;;;;4975981;28;20430;-86
2023/09/03 03:57:37;;;;;;;9.13;6.43;;;;;;;;;;4976474;28;20424;-88
2023/09/03 04:00:03;;;;;;;7.03;5.93;;;;;;;;;;4977425;28;20896;-87
2023/09/03 04:02:29;;;;;;;8.30;6.13;;;;;;;;;;4977339;28;20503;-87
2023/09/03 04:04:55;;;;;;;11.80;5.80;;;;;;;;;;4977195;28;20938;-87
2023/09/03 04:07:22;;;;;;;6.00;5.40;;;;;;;;;;4977424;28;20507;-88
2023/09/03 04:09:48;;;;;;;9.33;7.00;;;;;;;;;;4977340;28;20582;-87
2023/09/03 04:12:14;;;;;;;9.03;6.30;;;;;;;;;;4976179;28;20511;-84
2023/09/03 04:14:40;;;;;;;8.77;6.30;;;;;;;;;;4977576;28;20519;-87
2023/09/03 04:17:06;;;;;;;7.23;6.20;;;;;;;;;;4977279;28;20327;-86
2023/09/03 04:19:32;;;;;;;6.93;6.23;;;;;;;;;;4976923;28;20468;-88
2023/09/03 04:21:59;;;;;;;12.23;7.40;;;;;;;;;;4975930;28;20534;-87
2023/09/03 04:24:25;;;;;;;8.23;7.30;;;;;;;;;;4976784;28;20418;-88
2023/09/03 04:26:51;;;;;;;7.20;6.50;;;;;;;;;;4976795;28;20771;-87
2023/09/03 04:29:17;;;;;;;7.63;6.47;;;;;;;;;;4976599;28;20445;-86
2023/09/03 04:31:43;;;;;;;6.60;6.00;;;;;;;;;;4976636;28;20419;-87
2023/09/03 04:34:09;;;;;;;9.83;6.40;;;;;;;;;;4976346;28;20168;-86
2023/09/03 04:36:35;;;;;;;11.77;6.10;;;;;;;;;;4976549;28;20814;-86
2023/09/03 04:39:01;;;;;;;7.20;6.13;;;;;;;;;;4976432;28;20422;-86
2023/09/03 04:41:27;;;;;;;7.30;6.50;;;;;;;;;;4976726;28;20169;-88
2023/09/03 04:44:06;;;;;;;8.60;7.73;;;;;;;;;;4976794;28;20471;-87
2023/09/03 04:46:32;;;;;;;9.93;6.80;;;;;;;;;;4977021;28;20407;-87
2023/09/03 04:49:04;;;;;;;8.00;6.10;;;;;;;;;;4976336;28;20420;-87
2023/09/03 04:51:29;;;;;;;8.43;6.77;;;;;;;;;;4975545;28;20427;-87
2023/09/03 04:53:55;;;;;;;7.97;7.17;;;;;;;;;;4976792;28;20415;-90
2023/09/03 04:56:21;;;;;;;9.00;6.27;;;;;;;;;;4976537;28;20495;-88
2023/09/03 04:58:47;;;;;;;6.70;6.03;;;;;;;;;;4976561;28;20226;-87
2023/09/03 05:01:17;;;;;;;8.53;6.70;;;;;;;;;;4975919;28;20917;-84
2023/09/03 05:03:43;;;;;;;6.30;5.70;;;;;;;;;;4974519;28;20281;-86
2023/09/03 05:06:16;;;;;;;10.90;6.60;;;;;;;;;;4975023;28;20967;-85
2023/09/03 05:08:42;;;;;;;9.20;7.57;;;;;;;;;;4975975;28;20917;-86
2023/09/03 05:11:11;;;;;;;6.93;5.83;;;;;;;;;;4957480;28;20432;-85
2023/09/03 05:13:37;;;;;;;7.30;5.80;;;;;;;;;;4975378;28;20407;-86
2023/09/03 05:16:04;;;;;;;6.93;6.33;;;;;;;;;;4975812;28;20465;-87
2023/09/03 05:18:30;;;;;;;8.57;5.67;;;;;;;;;;4975532;28;20415;-84
2023/09/03 05:20:56;;;;;;;8.57;6.20;;;;;;;;;;4958401;28;20425;-85
2023/09/03 05:23:22;;;;;;;7.10;6.07;;;;;;;;;;4975772;28;20209;-85
2023/09/03 05:25:48;;;;;;;7.47;5.60;;;;;;;;;;4958452;28;20426;-84
2023/09/03 05:28:14;;;;;;;7.07;6.37;;;;;;;;;;4975577;28;20416;-84
2023/09/03 05:30:40;;;;;;;5.50;5.00;;;;;;;;;;4974505;28;20424;-85
2023/09/03 05:33:06;;;;;;;5.87;5.27;;;;;;;;;;4975609;28;20427;-85
2023/09/03 05:35:32;;;;;;;7.07;6.37;;;;;;;;;;4975280;28;20411;-85
2023/09/03 05:37:58;;;;;;;5.50;5.00;;;;;;;;;;4975193;28;20502;-85
2023/09/03 05:40:23;;;;;;;5.33;4.80;;;;;;;;;;4975253;28;20412;-83
2023/09/03 05:42:49;;;;;;;5.43;4.90;;;;;;;;;;4975292;28;20214;-84
2023/09/03 05:45:15;;;;;;;5.57;4.70;;;;;;;;;;4975377;28;20173;-87
2023/09/03 05:47:41;;;;;;;4.80;4.30;;;;;;;;;;4974368;28;20940;-84
2023/09/03 05:50:07;;;;;;;5.00;4.50;;;;;;;;;;4973631;28;20500;-84
2023/09/03 05:52:33;;;;;;;5.03;4.30;;;;;;;;;;4973801;28;20190;-85
2023/09/03 05:54:59;;;;;;;5.17;4.67;;;;;;;;;;4973998;28;20825;-86
2023/09/03 05:57:25;;;;;;;5.03;4.17;;;;;;;;;;4975062;28;20428;-85
2023/09/03 05:59:51;;;;;;;4.20;3.70;;;;;;;;;;4975032;28;20192;-85
2023/09/03 06:02:17;;;;;;;5.30;3.63;;;;;;;;;;4973435;28;20222;-84
2023/09/03 06:04:43;;;;;;;3.70;2.50;;;;;;;;;;4974570;28;20416;-84
2023/09/03 06:07:09;;;;;;;2.57;1.90;;;;;;;;;;4973869;28;20803;-86
2023/09/03 06:09:38;;;;;;;3.50;2.40;;;;;;;;;;4974591;28;20425;-85
2023/09/03 06:12:05;;;;;;;2.50;1.90;;;;;;;;;;4974551;28;20187;-84
2023/09/03 06:14:31;;;;;;;2.57;2.37;;;;;;;;;;4973453;28;20461;-84
2023/09/03 06:16:57;;;;;;;2.63;1.87;;;;;;;;;;4974003;28;20459;-85
2023/09/03 06:19:23;;;;;;;2.67;2.30;;;;;;;;;;4971829;28;20892;-81
2023/09/03 06:21:49;;;;;;;2.90;2.37;;;;;;;;;;4969018;28;20221;-81
2023/09/03 06:24:15;;;;;;;2.70;2.30;;;;;;;;;;4972382;28;20770;-84
2023/09/03 06:26:42;;;;;;;2.20;2.00;;;;;;;;;;4974409;28;20181;-84
2023/09/03 06:29:08;;;;;;;2.50;2.17;;;;;;;;;;4974418;28;20443;-83
2023/09/03 06:31:34;;;;;;;2.03;1.83;;;;;;;;;;4974409;28;20463;-83
2023/09/03 06:34:09;;;;;;;2.57;1.73;;;;;;;;;;4973996;28;20440;-88
2023/09/03 06:36:34;;;;;;;2.20;2.00;;;;;;;;;;4972432;28;20468;-85
2023/09/03 06:39:01;;;;;;;2.70;1.43;;;;;;;;;;4974293;28;20420;-85
2023/09/03 06:41:26;;;;;;;2.70;1.50;;;;;;;;;;4956858;28;20213;-85
2023/09/03 06:43:52;;;;;;;2.90;1.30;;;;;;;;;;4956766;28;20479;-84
2023/09/03 06:46:18;;;;;;;3.50;2.40;;;;;;;;;;4973859;28;20215;-84
2023/09/03 06:48:44;;;;;;;2.53;1.27;;;;;;;;;;4973860;28;20198;-85
2023/09/03 06:51:10;;;;;;;2.30;1.13;;;;;;;;;;4974116;28;20202;-85
2023/09/03 06:53:36;;;;;;;6.57;1.20;;;;;;;;;;4956686;28;20172;-84
2023/09/03 06:56:03;;;;;;;1.77;0.90;;;;;;;;;;4956411;28;20419;-84
2023/09/03 06:58:28;;;;;;;2.73;1.00;;;;;;;;;;4973914;28;20459;-85
2023/09/03 07:00:55;;;;;;;2.33;1.20;;;;;;;;;;4972847;28;20474;-90
2023/09/03 07:03:21;;;;;;;3.87;1.00;;;;;;;;;;4973614;28;20622;-84
2023/09/03 07:05:50;;;;;;;3.07;1.80;;;;;;;;;;4973975;28;20546;-88
2023/09/03 07:08:16;;;;;;;2.30;1.03;;;;;;;;;;4974242;28;20172;-90
2023/09/03 07:10:41;;;;;;;1.83;1.00;;;;;;;;;;4972838;28;20519;-84
2023/09/03 07:13:09;;;;;;;1.60;0.80;;;;;;;;;;4974017;28;20217;-85
2023/09/03 07:15:36;;;;;;;3.43;0.87;;;;;;;;;;4974121;28;20526;-83
2023/09/03 07:18:02;;;;;;;3.13;0.90;;;;;;;;;;4973759;28;20911;-84
2023/09/03 07:20:28;;;;;;;2.50;0.87;;;;;;;;;;4973360;28;20449;-83
2023/09/03 07:22:54;;;;;;;2.70;0.63;;;;;;;;;;4973703;28;20987;-83
2023/09/03 07:25:20;;;;;;;2.03;0.60;;;;;;;;;;4973797;28;20176;-83
2023/09/03 07:27:46;;;;;;;2.23;0.73;;;;;;;;;;4973706;28;20416;-83
2023/09/03 07:30:12;;;;;;;1.87;0.70;;;;;;;;;;4976918;28;20176;-84
2023/09/03 07:32:38;;;;;;;3.40;1.00;;;;;;;;;;4977485;28;20470;-84
2023/09/03 07:35:06;;;;;;;2.97;0.87;;;;;;;;;;4976803;28;20416;-84
2023/09/03 07:37:32;;;;;;;1.67;0.67;;;;;;;;;;4977567;28;20466;-86
2023/09/03 07:39:58;;;;;;;2.40;1.07;;;;;;;;;;4977792;28;20496;-85
2023/09/03 07:42:24;;;;;;;2.33;0.40;;;;;;;;;;4977501;28;20563;-86
2023/09/03 07:44:50;;;;;;;1.57;0.57;;;;;;;;;;4976370;28;20179;-88
2023/09/03 07:47:16;;;;;;;1.80;0.50;;;;;;;;;;4976214;28;20540;-86
2023/09/03 07:49:42;;;;;;;3.67;0.80;;;;;;;;;;4976963;28;20169;-86
2023/09/03 07:52:09;;;;;;;3.63;0.90;;;;;;;;;;4977205;28;20199;-86
2023/09/03 07:54:35;;;;;;;2.63;0.50;;;;;;;;;;4970798;28;20914;-85
2023/09/03 07:57:01;;;;;;;2.40;0.60;;;;;;;;;;4965702;28;20417;-87
2023/09/03 07:59:27;;;;;;;2.20;1.07;;;;;;;;;;4971511;28;20415;-85
2023/09/03 08:01:53;;;;;;;2.90;0.70;;;;;;;;;;4975717;28;20239;-85
2023/09/03 08:04:19;;;;;;;1.10;0.30;;;;;;;;;;4976501;28;20187;-87
2023/09/03 08:06:45;;;;;;;0.93;0.47;;;;;;;;;;4976946;28;20172;-85
2023/09/03 08:09:11;;;;;;;2.17;0.60;;;;;;;;;;4976813;28;20769;-86
2023/09/03 08:11:37;;;;;;;2.90;0.70;;;;;;;;;;4968226;28;20892;-85
2023/09/03 08:14:03;;;;;;;1.57;0.37;;;;;;;;;;4976274;28;20432;-88
2023/09/03 08:16:29;;;;;;;1.97;0.70;;;;;;;;;;4966082;28;20192;-87
2023/09/03 08:18:55;;;;;;;1.67;0.43;;;;;;;;;;4976085;28;20450;-88
2023/09/03 08:21:21;;;;;;;3.30;0.80;;;;;;;;;;4976646;28;20179;-86
2023/09/03 08:23:47;;;;;;;3.17;0.73;;;;;;;;;;4970907;28;20534;-84
2023/09/03 08:26:12;;;;;;;1.10;0.20;;;;;;;;;;4968522;28;20184;-87
2023/09/03 08:28:38;;;;;;;2.20;0.50;;;;;;;;;;4957288;28;20189;-87
2023/09/03 08:31:04;;;;;;;1.50;0.50;;;;;;;;;;4957208;28;20902;-88
2023/09/03 08:33:30;;;;;;;2.43;0.43;;;;;;;;;;4956854;28;20208;-87
2023/09/03 08:35:56;;;;;;;2.60;0.80;;;;;;;;;;4956725;28;20173;-88
2023/09/03 08:38:22;;;;;;;2.20;0.70;;;;;;;;;;4957010;28;20500;-87
2023/09/03 08:40:48;;;;;;;2.93;0.40;;;;;;;;;;4955149;28;20192;-88
2023/09/03 08:43:17;;;;;;;3.03;0.50;;;;;;;;;;4955774;28;20476;-88
2023/09/03 08:45:48;;;;;;;3.07;0.50;;;;;;;;;;4961990;28;20950;-88
2023/09/03 08:48:15;;;;;;;1.40;0.70;;;;;;;;;;4975924;28;20404;-87
2023/09/03 08:50:41;;;;;;;4.40;0.50;;;;;;;;;;4974658;28;20445;-87
2023/09/03 08:53:08;;;;;;;3.43;0.60;;;;;;;;;;4958758;28;20416;-88
2023/09/03 08:55:33;;;;;;;1.73;0.50;;;;;;;;;;4975831;28;20275;-87
2023/09/03 08:57:59;;;;;;;2.80;0.70;;;;;;;;;;4960177;28;20963;-87
2023/09/03 09:00:26;;;;;;;1.97;0.87;;;;;;;;;;4976129;28;20618;-88
2023/09/03 09:02:53;;;;;;;1.40;0.67;;;;;;;;;;4958367;28;20812;-89
2023/09/03 09:05:19;;;;;;;1.83;0.60;;;;;;;;;;4976067;28;20427;-85
2023/09/03 09:07:47;;;;;;;1.30;0.40;;;;;;;;;;4976418;28;20967;-89
2023/09/03 09:10:16;;;;;;;2.57;0.97;;;;;;;;;;4974815;28;20423;-88
2023/09/03 09:12:49;;;;;;;2.93;0.97;;;;;;;;;;4975838;28;20424;-88
2023/09/03 09:15:15;;;;;;;2.83;0.80;;;;;;;;;;4975632;28;20479;-88
2023/09/03 09:17:42;;;;;;;1.83;0.50;;;;;;;;;;4975896;28;20411;-89
2023/09/03 09:20:09;;;;;;;2.60;0.73;;;;;;;;;;4975307;28;20201;-86
2023/09/03 09:22:41;;;;;;;2.83;0.90;;;;;;;;;;4975660;28;21036;-88
2023/09/03 09:25:08;;;;;;;1.80;0.63;;;;;;;;;;4975432;28;20804;-89
2023/09/03 09:27:40;;;;;;;1.40;0.50;;;;;;;;;;4975435;28;20491;-84
2023/09/03 09:30:13;;;;;;;2.60;0.63;;;;;;;;;;4975460;28;20503;-83
2023/09/03 09:32:40;;;;;;;1.47;0.60;;;;;;;;;;4975277;28;20558;-87
2023/09/03 09:35:06;;;;;;;1.73;0.70;;;;;;;;;;4975204;28;20416;-86
2023/09/03 09:37:42;;;;;;;0.83;0.47;;;;;;;;;;4975248;28;20464;-89
2023/09/03 09:40:08;;;;;;;1.20;0.40;;;;;;;;;;4975629;28;20415;-89
2023/09/03 09:42:35;;;;;;;2.20;0.70;;;;;;;;;;4974280;28;20446;-89
2023/09/03 09:45:02;;;;;;;1.83;0.50;;;;;;;;;;4974824;28;20420;-88
2023/09/03 09:47:28;;;;;;;1.00;0.40;;;;;;;;;;4973998;28;20420;-87
2023/09/03 09:49:55;;;;;;;1.73;0.60;;;;;;;;;;4974766;28;20507;-87
2023/09/03 09:52:21;;;;;;;2.53;0.80;;;;;;;;;;4974150;28;20971;-87
2023/09/03 09:54:47;;;;;;;1.37;0.40;;;;;;;;;;4975477;28;20419;-87
2023/09/03 09:57:19;;;;;;;1.67;0.50;;;;;;;;;;4975321;28;20816;-89
2023/09/03 09:59:51;;;;;;;2.73;0.70;;;;;;;;;;4978527;28;20991;-87
2023/09/03 10:02:17;;;;;;;1.97;0.50;;;;;;;;;;4961035;28;20470;-87
2023/09/03 10:04:44;;;;;;;2.30;0.97;;;;;;;;;;4973990;28;20423;-87
2023/09/03 10:07:10;;;;;;;2.70;0.97;;;;;;;;;;4962045;28;20827;-86
2023/09/03 10:09:36;;;;;;;4.43;1.17;;;;;;;;;;4974957;28;20415;-89
2023/09/03 10:12:03;;;;;;;1.80;0.83;;;;;;;;;;4974751;28;20966;-88
2023/09/03 10:14:29;;;;;;;2.00;0.50;;;;;;;;;;4975084;28;20424;-87
2023/09/03 10:16:59;;;;;;;2.93;0.80;;;;;;;;;;4975001;28;20420;-88
2023/09/03 10:19:28;;;;;;;3.43;0.70;;;;;;;;;;4974679;28;20180;-87
2023/09/03 10:21:55;;;;;;;1.90;0.67;;;;;;;;;;4974654;28;20451;-87
2023/09/03 10:24:22;;;;;;;2.53;0.67;;;;;;;;;;4973242;28;20416;-88
2023/09/03 10:26:54;;;;;;;1.63;0.50;;;;;;;;;;4974592;28;20419;-87
2023/09/03 10:29:21;;;;;;;2.70;1.20;;;;;;;;;;4974243;28;20986;-86
2023/09/03 10:31:47;;;;;;;2.40;1.30;;;;;;;;;;4973524;28;20779;-91
2023/09/03 10:34:15;;;;;;;3.33;1.83;;;;;;;;;;4974780;28;20415;-88
2023/09/03 10:36:59;;;;;;;4.10;1.90;;;;;;;;;;4974271;28;20887;-87
2023/09/03 10:39:25;;;;;;;2.10;0.80;;;;;;;;;;4974345;28;20416;-89
2023/09/03 10:42:09;;;;;;;3.07;1.13;;;;;;;;;;4974523;28;20429;-88
2023/09/03 10:44:35;;;;;;;2.40;1.00;;;;;;;;;;4974127;28;20168;-87
2023/09/03 10:47:01;;;;;;;3.13;0.70;;;;;;;;;;4974050;28;20423;-92
2023/09/03 10:49:40;;;;;;;2.53;0.50;;;;;;;;;;4974135;28;20220;-88
2023/09/03 10:52:25;;;;;;;3.23;1.17;;;;;;;;;;4956658;28;20462;-88
2023/09/03 10:55:09;;;;;;;2.43;0.87;;;;;;;;;;4974530;28;20507;-88
2023/09/03 10:57:35;;;;;;;1.17;0.70;;;;;;;;;;4974213;28;20423;-87
2023/09/03 11:00:04;;;;;;;2.30;1.10;;;;;;;;;;4974075;28;20411;-86
2023/09/03 11:02:31;;;;;;;1.70;0.60;;;;;;;;;;4973782;28;20435;-91
2023/09/03 11:05:12;;;;;;;2.07;0.47;;;;;;;;;;4955963;28;20842;-87
2023/09/03 11:07:38;;;;;;;1.50;0.70;;;;;;;;;;4972640;28;20434;-85
2023/09/03 11:10:27;;;;;;;3.70;1.13;;;;;;;;;;4973582;28;20919;-86
2023/09/03 11:12:53;;;;;;;2.23;0.60;;;;;;;;;;4973763;28;20475;-85
2023/09/03 11:15:19;;;;;;;2.80;0.83;;;;;;;;;;4973869;28;20404;-85
2023/09/03 11:17:52;;;;;;;2.00;1.13;;;;;;;;;;4973432;28;20177;-87
2023/09/03 11:20:34;;;;;;;1.70;0.70;;;;;;;;;;4973503;28;20482;-87
2023/09/03 11:23:00;;;;;;;2.03;1.10;;;;;;;;;;4973695;28;20456;-86
2023/09/03 11:25:34;;;;;;;2.60;1.10;;;;;;;;;;4971587;28;20772;-91
2023/09/03 11:28:00;;;;;;;2.67;1.33;;;;;;;;;;4964553;28;20625;-91
2023/09/03 11:30:26;;;;;;;3.57;1.00;;;;;;;;;;4974711;28;20416;-92
2023/09/03 11:32:52;;;;;;;3.50;1.27;;;;;;;;;;4974454;28;20211;-91
2023/09/03 11:35:18;;;;;;;2.77;0.90;;;;;;;;;;4974607;28;20176;-90
2023/09/03 11:37:44;;;;;;;0.90;0.40;;;;;;;;;;4974318;28;20597;-90
2023/09/03 11:40:12;;;;;;;1.83;0.90;;;;;;;;;;4974823;28;20462;-91
2023/09/03 11:42:40;;;;;;;2.20;0.93;;;;;;;;;;4959019;28;20432;-91
2023/09/03 11:45:08;;;;;;;1.50;0.73;;;;;;;;;;4974381;28;20404;-88
2023/09/03 11:47:40;;;;;;;2.50;1.17;;;;;;;;;;4972950;28;20420;-91
2023/09/03 11:50:13;;;;;;;3.40;1.40;;;;;;;;;;4974585;28;20411;-91
2023/09/03 11:52:39;;;;;;;4.60;1.30;;;;;;;;;;4974525;28;20467;-87
2023/09/03 11:55:05;;;;;;;6.23;1.50;;;;;;;;;;4973282;28;20416;-90
2023/09/03 11:57:32;;;;;;;2.40;1.30;;;;;;;;;;4973383;28;20446;-91
2023/09/03 11:59:58;;;;;;;2.70;1.23;;;;;;;;;;4974261;28;20438;-90
2023/09/03 12:02:24;;;;;;;3.77;1.17;;;;;;;;;;4974183;28;20423;-88
2023/09/03 12:04:50;;;;;;;1.83;1.07;;;;;;;;;;4973891;28;20427;-88
2023/09/03 12:07:16;;;;;;;3.30;1.50;;;;;;;;;;4974170;28;20784;-90
2023/09/03 12:09:43;;;;;;;2.20;1.37;;;;;;;;;;4973858;28;20176;-90
2023/09/03 12:12:09;;;;;;;2.90;1.00;;;;;;;;;;4973976;28;20815;-89
2023/09/03 12:14:35;;;;;;;5.10;1.90;;;;;;;;;;4977484;28;20444;-89
2023/09/03 12:17:01;;;;;;;7.67;2.60;;;;;;;;;;4976474;28;20442;-87
2023/09/03 12:19:43;;;;;;;5.77;2.23;;;;;;;;;;4975440;28;21011;-90
2023/09/03 12:22:09;;;;;;;2.70;0.97;;;;;;;;;;4976242;28;20653;-90
2023/09/03 12:24:35;;;;;;;3.57;1.33;;;;;;;;;;4975451;28;20447;-91
2023/09/03 12:27:04;;;;;;;3.07;1.13;;;;;;;;;;4959488;28;20490;-89
2023/09/03 12:29:38;;;;;;;2.97;0.87;;;;;;;;;;4975901;28;20424;-87
2023/09/03 12:32:04;;;;;;;3.00;1.10;;;;;;;;;;4976881;28;20447;-88
2023/09/03 12:34:39;;;;;;;4.10;1.80;;;;;;;;;;4975168;28;20424;-88
2023/09/03 12:37:06;;;;;;;2.40;1.27;;;;;;;;;;4976444;28;20462;-88
2023/09/03 12:39:40;;;;;;;1.67;1.10;;;;;;;;;;4959321;28;20467;-87
2023/09/03 12:42:07;;;;;;;2.07;0.70;;;;;;;;;;4970446;28;20411;-88
2023/09/03 12:44:34;;;;;;;1.17;0.60;;;;;;;;;;4956275;28;20781;-88
2023/09/03 12:47:01;;;;;;;1.40;0.50;;;;;;;;;;4957201;29;20419;-89
2023/09/03 12:49:27;;;;;;;2.07;0.60;;;;;;;;;;4963531;28;20442;-86
2023/09/03 12:51:53;;;;;;;3.70;0.60;;;;;;;;;;4973992;28;20963;-85
2023/09/03 12:54:19;;;;;;;1.93;0.80;;;;;;;;;;4958585;28;20448;-85
2023/09/03 12:56:45;;;;;;;3.10;0.43;;;;;;;;;;4976018;28;20411;-86
2023/09/03 12:59:11;;;;;;;1.00;0.70;;;;;;;;;;4958503;28;20427;-85
2023/09/03 13:01:39;;;;;;;4.03;0.90;;;;;;;;;;4975907;28;20177;-85
2023/09/03 13:04:06;;;;;;;1.13;0.70;;;;;;;;;;4975304;28;20943;-85
2023/09/03 13:06:32;;;;;;;2.13;0.77;;;;;;;;;;4975728;28;20451;-85
2023/09/03 13:08:58;;;;;;;1.43;0.50;;;;;;;;;;4975708;28;20420;-85
2023/09/03 13:11:24;;;;;;;2.40;0.60;;;;;;;;;;4958328;28;20929;-86
2023/09/03 13:13:50;;;;;;;2.40;0.40;;;;;;;;;;4958300;28;20223;-85
2023/09/03 13:16:17;;;;;;;1.33;0.50;;;;;;;;;;4975652;28;20550;-85
2023/09/03 13:18:44;;;;;;;1.90;0.53;;;;;;;;;;4975201;28;20781;-85
2023/09/03 13:21:10;;;;;;;2.50;0.33;;;;;;;;;;4975214;28;20428;-86
2023/09/03 13:23:36;;;;;;;2.73;1.33;;;;;;;;;;4974883;28;20477;-85
2023/09/03 13:26:02;;;;;;;1.80;0.93;;;;;;;;;;4975008;28;20971;-88
2023/09/03 13:28:29;;;;;;;2.17;0.60;;;;;;;;;;4974112;28;20191;-87
2023/09/03 13:30:55;;;;;;;1.50;0.80;;;;;;;;;;4975671;28;20840;-85
2023/09/03 13:33:21;;;;;;;1.80;0.70;;;;;;;;;;4974774;28;20562;-85
2023/09/03 13:35:53;;;;;;;1.27;0.40;;;;;;;;;;4974856;28;20490;-85
2023/09/03 13:38:19;;;;;;;1.40;0.50;;;;;;;;;;4975239;28;20191;-85
2023/09/03 13:40:45;;;;;;;1.63;0.47;;;;;;;;;;4974731;28;20419;-87
2023/09/03 13:43:11;;;;;;;1.70;0.50;;;;;;;;;;4973415;28;20428;-85
2023/09/03 13:45:37;;;;;;;2.43;0.70;;;;;;;;;;4975209;28;20478;-87
2023/09/03 13:48:03;;;;;;;2.00;0.60;;;;;;;;;;4973901;28;20439;-87
2023/09/03 13:50:29;;;;;;;3.70;1.00;;;;;;;;;;4967957;28;20280;-89
2023/09/03 13:52:58;;;;;;;1.97;0.80;;;;;;;;;;4969322;28;21055;-86
2023/09/03 13:55:25;;;;;;;2.73;0.63;;;;;;;;;;4965976;28;20413;-86
2023/09/03 13:57:51;;;;;;;3.63;0.73;;;;;;;;;;4955883;28;20431;-85
2023/09/03 14:00:17;;;;;;;1.17;0.57;;;;;;;;;;4974116;28;20432;-86
2023/09/03 14:02:43;;;;;;;1.63;0.67;;;;;;;;;;4974009;28;20435;-85
2023/09/03 14:05:10;;;;;;;1.67;0.53;;;;;;;;;;4974947;28;20412;-85
2023/09/03 14:07:35;;;;;;;3.57;0.90;;;;;;;;;;4957624;28;20455;-87
2023/09/03 14:10:01;;;;;;;2.80;0.70;;;;;;;;;;4974570;28;20425;-85
2023/09/03 14:12:27;;;;;;;1.83;0.63;;;;;;;;;;4974330;28;20208;-85
2023/09/03 14:14:54;;;;;;;1.90;0.57;;;;;;;;;;4974749;28;20195;-87
2023/09/03 14:17:20;;;;;;;2.67;0.97;;;;;;;;;;4974094;28;20184;-85
2023/09/03 14:19:47;;;;;;;2.10;0.93;;;;;;;;;;4974398;28;20442;-86
2023/09/03 14:22:13;;;;;;;3.33;1.40;;;;;;;;;;4975202;28;20408;-87
2023/09/03 14:24:39;;;;;;;1.70;0.80;;;;;;;;;;4975037;28;20420;-84
2023/09/03 14:27:05;;;;;;;3.53;0.77;;;;;;;;;;4974258;28;20411;-85
2023/09/03 14:29:32;;;;;;;3.50;1.13;;;;;;;;;;4972944;28;20420;-85
2023/09/03 14:31:58;;;;;;;1.97;0.73;;;;;;;;;;4974121;28;20467;-91
2023/09/03 14:34:24;;;;;;;1.30;0.50;;;;;;;;;;4974916;28;20805;-84
2023/09/03 14:36:50;;;;;;;2.30;0.70;;;;;;;;;;4954257;28;20521;-84
2023/09/03 14:39:16;;;;;;;2.10;1.20;;;;;;;;;;4974829;28;20534;-86
2023/09/03 14:41:43;;;;;;;2.73;1.50;;;;;;;;;;4970888;28;20422;-84
2023/09/03 14:44:09;;;;;;;3.37;0.93;;;;;;;;;;4974004;28;20418;-85